Schedule Details

Flight Number: CPX309
Departure: Guam International Airport (PGUM) at N/A
Arrival: Tokyo-Narita International Airport (RJAA) at N/A
Route: UNZ TERYY G205 TEGOD A337 DAGDA G223 ADKAK Y819 CATCH Y815 KETAR Y811 VEPOX Y811 MELON


Current Weather Information
PGUM 152054Z 06011KT 10SM CLR 25/23 A3003 RMK AO2 SLP161 T02500228 53015
RJAA 152130Z 32003KT 9999 FEW015 BKN160 01/M02 Q1010 NOSIG RMK 1CU015 7AC160 A2983

Route Map